createdAt,value
2023-04-12T00:00:12.160Z,6.49
2023-04-12T00:05:14.400Z,6.46
2023-04-12T00:10:16.532Z,6.45
2023-04-12T00:15:18.433Z,6.44
2023-04-12T00:20:20.427Z,6.42
2023-04-12T00:25:22.364Z,6.40
2023-04-12T00:30:24.554Z,6.40
2023-04-12T00:35:26.474Z,6.37
2023-04-12T00:40:28.437Z,6.36
2023-04-12T00:45:32.157Z,6.39
2023-04-12T00:50:37.298Z,6.40
2023-04-12T00:55:42.158Z,6.44
2023-04-12T01:00:50.129Z,6.49
2023-04-12T01:06:32.277Z,6.53
2023-04-12T01:12:08.911Z,6.57
2023-04-12T01:17:21.103Z,6.61
2023-04-12T01:22:33.488Z,6.58
2023-04-12T01:27:42.365Z,6.57
2023-04-12T01:32:47.837Z,6.51
2023-04-12T01:37:49.934Z,6.49
2023-04-12T01:42:52.143Z,6.44
2023-04-12T01:47:56.425Z,6.35
2023-04-12T01:53:18.546Z,6.31
2023-04-12T01:58:22.392Z,6.30
2023-04-12T02:03:24.819Z,6.24
2023-04-12T02:08:27.126Z,6.22
2023-04-12T02:13:29.208Z,6.21
2023-04-12T02:18:31.447Z,6.22
2023-04-12T02:23:33.699Z,6.23
2023-04-12T02:28:37.390Z,6.18
2023-04-12T02:33:41.335Z,6.15
2023-04-12T02:38:44.291Z,6.11
2023-04-12T02:43:46.965Z,6.04
2023-04-12T02:48:49.359Z,6.01
2023-04-12T02:53:52.808Z,6.01
2023-04-12T02:58:57.689Z,5.99
2023-04-12T03:04:11.231Z,5.91
2023-04-12T03:09:20.512Z,5.89
2023-04-12T03:14:22.597Z,5.84
2023-04-12T03:19:24.956Z,5.74
2023-04-12T03:24:30.041Z,5.73
2023-04-12T03:29:32.434Z,5.70
2023-04-12T03:34:35.558Z,5.65
2023-04-12T03:39:47.896Z,5.61
2023-04-12T03:44:54.018Z,5.58
2023-04-12T03:55:09.840Z,5.51
2023-04-12T04:00:13.880Z,5.43
2023-04-12T04:05:33.557Z,5.34
2023-04-12T04:10:36.390Z,5.26
2023-04-12T04:15:38.795Z,5.18
2023-04-12T04:20:40.608Z,5.13
2023-04-12T04:25:45.018Z,5.08
2023-04-12T04:30:48.617Z,5.10
2023-04-12T04:35:52.403Z,5.17
2023-04-12T04:40:59.873Z,5.29
2023-04-12T04:46:08.118Z,5.41
2023-04-12T04:51:10.218Z,5.51
2023-04-12T04:56:12.395Z,5.57
2023-04-12T05:01:16.946Z,5.63
2023-04-12T05:06:20.044Z,5.72
2023-04-12T05:11:22.076Z,5.77
2023-04-12T05:16:24.733Z,5.90
2023-04-12T05:21:27.325Z,6.01
2023-04-12T05:26:29.439Z,6.09
2023-04-12T05:31:33.045Z,6.16
2023-04-12T05:36:37.874Z,6.27
2023-04-12T05:41:39.636Z,6.31
2023-04-12T05:46:41.700Z,6.33
2023-04-12T05:51:43.750Z,6.46
2023-04-12T05:56:57.293Z,6.54
2023-04-12T06:02:00.721Z,6.57
2023-04-12T06:07:05.649Z,6.67
2023-04-12T06:12:07.471Z,6.90
2023-04-12T06:17:11.374Z,7.10
2023-04-12T06:22:15.717Z,7.20
2023-04-12T06:27:20.685Z,7.24
2023-04-12T06:32:23.013Z,7.37
2023-04-12T06:37:27.065Z,7.46
2023-04-12T06:42:28.834Z,7.38
2023-04-12T06:47:32.331Z,7.25
2023-04-12T06:52:34.234Z,7.23
2023-04-12T06:57:36.186Z,7.26
2023-04-12T07:02:39.058Z,7.29
2023-04-12T07:07:41.251Z,7.38
2023-04-12T07:12:43.028Z,7.50
2023-04-12T07:17:45.368Z,7.70
2023-04-12T07:22:47.217Z,7.94
2023-04-12T07:27:51.568Z,8.17
2023-04-12T07:32:58.434Z,8.46
2023-04-12T07:38:04.644Z,8.56
2023-04-12T07:43:06.497Z,8.68
2023-04-12T07:48:08.588Z,8.94
2023-04-12T07:53:22.302Z,9.24
2023-04-12T07:58:25.059Z,9.46
2023-04-12T08:03:27.288Z,9.63
2023-04-12T08:08:29.516Z,9.90
2023-04-12T08:13:31.498Z,10.00
2023-04-12T08:18:33.548Z,10.07
2023-04-12T08:23:35.376Z,10.21
2023-04-12T08:28:39.710Z,10.40
2023-04-12T08:33:41.835Z,10.82
2023-04-12T08:38:46.057Z,11.44
2023-04-12T08:43:48.900Z,11.76
2023-04-12T08:48:56.241Z,11.82
2023-04-12T08:53:59.364Z,11.77
2023-04-12T08:59:03.044Z,11.78
2023-04-12T09:04:08.311Z,11.84
2023-04-12T09:09:11.221Z,11.89
2023-04-12T09:14:24.075Z,12.00
2023-04-12T09:19:41.141Z,12.19
2023-04-12T09:24:50.614Z,12.62
2023-04-12T09:30:06.975Z,13.10
2023-04-12T09:35:09.783Z,13.52
2023-04-12T09:40:13.053Z,13.57
2023-04-12T09:45:24.409Z,13.38
2023-04-12T09:50:33.639Z,13.45
2023-04-12T09:55:35.910Z,13.67
2023-04-12T10:00:38.648Z,14.06
2023-04-12T10:05:42.355Z,14.39
2023-04-12T10:10:46.481Z,14.79
2023-04-12T10:15:51.033Z,15.18
2023-04-12T10:20:53.650Z,15.57
2023-04-12T10:25:57.112Z,15.87
2023-04-12T10:31:00.747Z,15.64
2023-04-12T10:36:06.911Z,15.03
2023-04-12T10:41:16.447Z,14.97
2023-04-12T10:46:40.257Z,14.82
2023-04-12T10:52:21.260Z,14.75
2023-04-12T11:03:08.916Z,14.88
2023-04-12T11:08:12.290Z,14.96
2023-04-12T11:13:15.010Z,15.05
2023-04-12T11:18:17.617Z,15.15
2023-04-12T11:23:19.789Z,15.23
2023-04-12T11:28:28.717Z,15.17
2023-04-12T11:33:39.816Z,14.72
2023-04-12T11:38:41.897Z,14.62
2023-04-12T11:43:45.350Z,14.62
2023-04-12T11:48:47.248Z,14.59
2023-04-12T11:53:53.789Z,14.74
2023-04-12T11:58:55.892Z,14.72
2023-04-12T12:04:02.737Z,14.79
2023-04-12T12:09:06.213Z,14.98
2023-04-12T12:14:08.613Z,15.27
2023-04-12T12:19:10.535Z,15.36
2023-04-12T12:24:14.827Z,15.51
2023-04-12T12:29:22.062Z,15.53
2023-04-12T12:34:24.767Z,15.50
2023-04-12T12:39:26.909Z,15.48
2023-04-12T12:44:29.346Z,15.28
2023-04-12T12:49:31.359Z,15.11
2023-04-12T12:54:41.159Z,14.68
2023-04-12T12:59:44.208Z,14.61
2023-04-12T13:04:47.262Z,14.67
2023-04-12T13:09:49.749Z,14.50
2023-04-12T13:14:57.910Z,14.49
2023-04-12T13:20:07.046Z,14.49
2023-04-12T13:25:10.003Z,14.66
2023-04-12T13:30:12.003Z,14.80
2023-04-12T13:35:14.814Z,14.75
2023-04-12T13:40:17.182Z,14.64
2023-04-12T13:45:19.104Z,14.80
2023-04-12T13:50:21.027Z,14.89
2023-04-12T13:55:23.130Z,14.47
2023-04-12T14:00:25.170Z,14.36
2023-04-12T14:05:27.455Z,14.64
2023-04-12T14:10:29.402Z,14.64
2023-04-12T14:15:31.307Z,14.77
2023-04-12T14:20:33.143Z,14.93
2023-04-12T14:25:37.549Z,15.01
2023-04-12T14:30:39.377Z,14.94
2023-04-12T14:35:41.516Z,14.83
2023-04-12T14:40:43.785Z,14.83
2023-04-12T14:45:45.747Z,14.85
2023-04-12T14:50:47.927Z,14.87
2023-04-12T14:55:49.834Z,15.06
2023-04-12T15:00:51.763Z,15.16
2023-04-12T15:05:54.170Z,15.13
2023-04-12T15:10:56.069Z,15.15
2023-04-12T15:15:58.785Z,15.18
2023-04-12T15:21:03.086Z,15.26
2023-04-12T15:26:09.189Z,15.07
2023-04-12T15:31:12.052Z,14.81
2023-04-12T15:36:16.873Z,14.53
2023-04-12T15:41:19.262Z,14.29
2023-04-12T15:46:21.635Z,14.06
2023-04-12T15:51:24.115Z,14.04
2023-04-12T15:56:26.505Z,13.87
2023-04-12T16:01:28.662Z,13.70
2023-04-12T16:06:34.764Z,13.53
2023-04-12T16:11:36.682Z,13.37
2023-04-12T16:16:40.484Z,13.23
2023-04-12T16:21:44.577Z,13.10
2023-04-12T16:26:48.108Z,13.07
2023-04-12T16:31:51.757Z,13.34
2023-04-12T16:36:53.934Z,13.77
2023-04-12T16:41:56.178Z,13.62
2023-04-12T16:46:58.295Z,13.10
2023-04-12T16:52:01.515Z,12.71
2023-04-12T16:57:04.161Z,12.38
2023-04-12T17:02:07.852Z,12.31
2023-04-12T17:07:11.185Z,12.34
2023-04-12T17:12:13.037Z,12.38
2023-04-12T17:17:15.518Z,12.34
2023-04-12T17:22:19.330Z,12.28
2023-04-12T17:27:22.247Z,12.16
2023-04-12T17:32:24.128Z,12.01
2023-04-12T17:37:27.877Z,11.83
2023-04-12T17:42:30.047Z,11.66
2023-04-12T17:47:35.703Z,11.51
2023-04-12T17:52:37.904Z,11.33
2023-04-12T17:57:42.180Z,11.17
2023-04-12T18:02:46.176Z,11.02
2023-04-12T18:07:48.763Z,10.88
2023-04-12T18:12:51.149Z,10.72
2023-04-12T18:17:53.375Z,10.58
2023-04-12T18:22:55.300Z,10.43
2023-04-12T18:27:57.576Z,10.31
2023-04-12T18:33:00.984Z,10.19
2023-04-12T18:38:05.237Z,10.09
2023-04-12T18:43:08.210Z,9.98
2023-04-12T18:48:10.896Z,9.88
2023-04-12T18:53:13.030Z,9.78
2023-04-12T18:58:16.572Z,9.69
2023-04-12T19:03:18.951Z,9.54
2023-04-12T19:08:22.605Z,9.41
2023-04-12T19:13:24.563Z,9.30
2023-04-12T19:18:30.288Z,9.23
2023-04-12T19:23:35.304Z,9.18
2023-04-12T19:28:38.023Z,9.14
2023-04-12T19:33:41.528Z,9.07
2023-04-12T19:38:44.243Z,9.03
2023-04-12T19:43:48.243Z,8.97
2023-04-12T19:48:51.387Z,8.88
2023-04-12T19:53:54.881Z,8.74
2023-04-12T19:58:58.147Z,8.63
2023-04-12T20:04:00.334Z,8.54
2023-04-12T20:09:02.883Z,8.50
2023-04-12T20:14:08.365Z,8.39
2023-04-12T20:19:10.419Z,8.31
2023-04-12T20:24:12.924Z,8.22
2023-04-12T20:29:16.365Z,8.13
2023-04-12T20:34:19.293Z,8.04
2023-04-12T20:39:23.235Z,8.00
2023-04-12T20:44:27.905Z,7.91
2023-04-12T20:49:31.193Z,7.79
2023-04-12T20:54:34.202Z,7.63
2023-04-12T20:59:36.296Z,7.49
2023-04-12T21:04:41.308Z,7.41
2023-04-12T21:09:44.375Z,7.47
2023-04-12T21:15:11.850Z,7.47
2023-04-12T21:20:14.087Z,7.49
2023-04-12T21:25:17.139Z,7.49
2023-04-12T21:30:19.169Z,7.51
2023-04-12T21:35:26.308Z,7.41
2023-04-12T21:40:28.689Z,7.35
2023-04-12T21:45:50.693Z,7.33
2023-04-12T21:50:54.545Z,7.30
2023-04-12T21:55:57.232Z,7.25
2023-04-12T22:00:59.264Z,7.23
2023-04-12T22:06:04.766Z,7.19
2023-04-12T22:11:07.593Z,7.15
2023-04-12T22:16:13.950Z,7.14
2023-04-12T22:21:16.596Z,7.18
2023-04-12T22:26:18.431Z,7.13
2023-04-12T22:31:22.960Z,7.15
2023-04-12T22:36:28.636Z,7.22
2023-04-12T22:41:32.983Z,7.21
2023-04-12T22:46:39.405Z,7.20
2023-04-12T22:51:42.766Z,7.21
2023-04-12T22:56:47.774Z,7.16
2023-04-12T23:01:50.362Z,7.12
2023-04-12T23:06:56.899Z,7.02
2023-04-12T23:12:00.246Z,6.95
2023-04-12T23:17:03.437Z,6.92
2023-04-12T23:22:06.208Z,6.91
2023-04-12T23:27:07.991Z,6.94
2023-04-12T23:32:10.489Z,6.90
2023-04-12T23:37:12.775Z,6.93
2023-04-12T23:42:23.687Z,6.89
2023-04-12T23:47:26.066Z,6.83
2023-04-12T23:52:48.465Z,6.77
2023-04-12T23:57:50.310Z,6.74
